sensor_id;sensor_type;location;lat;lon;timestamp;pressure;altitude;pressure_sealevel;temperature;humidity
61710;BME280;47633;51.494;5.386;2023-08-06T00:01:23;100287.88;;;21.98;55.74
61710;BME280;47633;51.494;5.386;2023-08-06T00:03:49;100292.38;;;21.98;55.78
61710;BME280;47633;51.494;5.386;2023-08-06T00:06:14;100284.41;;;21.98;56.09
61710;BME280;47633;51.494;5.386;2023-08-06T00:08:39;100288.91;;;21.97;55.73
61710;BME280;47633;51.494;5.386;2023-08-06T00:11:05;100294.22;;;21.97;55.70
61710;BME280;47633;51.494;5.386;2023-08-06T00:13:30;100291.72;;;21.96;55.68
61710;BME280;47633;51.494;5.386;2023-08-06T00:15:55;100291.56;;;21.97;55.72
61710;BME280;47633;51.494;5.386;2023-08-06T00:18:20;100280.25;;;21.95;55.86
61710;BME280;47633;51.494;5.386;2023-08-06T00:20:46;100281.91;;;21.96;56.19
61710;BME280;47633;51.494;5.386;2023-08-06T00:23:11;100283.59;;;21.97;56.04
61710;BME280;47633;51.494;5.386;2023-08-06T00:25:36;100280.25;;;21.95;55.81
61710;BME280;47633;51.494;5.386;2023-08-06T00:28:02;100274.94;;;21.95;55.78
61710;BME280;47633;51.494;5.386;2023-08-06T00:30:27;100279.44;;;21.95;55.84
61710;BME280;47633;51.494;5.386;2023-08-06T00:32:52;100281.25;;;21.94;56.00
61710;BME280;47633;51.494;5.386;2023-08-06T00:35:18;100279.44;;;21.95;56.08
61710;BME280;47633;51.494;5.386;2023-08-06T00:37:43;100279.44;;;21.95;55.84
61710;BME280;47633;51.494;5.386;2023-08-06T00:40:08;100272.47;;;21.93;55.99
61710;BME280;47633;51.494;5.386;2023-08-06T00:42:34;100275.09;;;21.93;55.82
61710;BME280;47633;51.494;5.386;2023-08-06T00:45:00;100279.59;;;21.93;55.72
61710;BME280;47633;51.494;5.386;2023-08-06T00:47:26;100272.63;;;21.92;56.00
61710;BME280;47633;51.494;5.386;2023-08-06T00:49:51;100276.94;;;21.93;55.58
61710;BME280;47633;51.494;5.386;2023-08-06T00:52:17;100271.78;;;21.91;55.99
61710;BME280;47633;51.494;5.386;2023-08-06T00:54:42;100276.13;;;21.92;55.99
61710;BME280;47633;51.494;5.386;2023-08-06T00:57:09;100269.16;;;21.91;55.99
61710;BME280;47633;51.494;5.386;2023-08-06T00:59:34;100273.63;;;21.91;55.73
61710;BME280;47633;51.494;5.386;2023-08-06T01:01:59;100265.69;;;21.91;55.76
61710;BME280;47633;51.494;5.386;2023-08-06T01:04:25;100266.66;;;21.90;55.95
61710;BME280;47633;51.494;5.386;2023-08-06T01:10:01;100263.84;;;21.91;55.77
61710;BME280;47633;51.494;5.386;2023-08-06T01:15:07;100264.84;;;21.90;56.09
61710;BME280;47633;51.494;5.386;2023-08-06T01:17:35;100264.00;;;21.90;55.91
61710;BME280;47633;51.494;5.386;2023-08-06T01:20:00;100263.19;;;21.89;55.97
61710;BME280;47633;51.494;5.386;2023-08-06T01:22:26;100264.00;;;21.90;56.02
61710;BME280;47633;51.494;5.386;2023-08-06T01:24:52;100268.50;;;21.89;55.88
61710;BME280;47633;51.494;5.386;2023-08-06T01:27:22;100260.53;;;21.89;55.72
61710;BME280;47633;51.494;5.386;2023-08-06T01:30:06;100269.47;;;21.88;56.02
61710;BME280;47633;51.494;5.386;2023-08-06T01:32:46;100265.19;;;21.87;56.03
61710;BME280;47633;51.494;5.386;2023-08-06T01:35:16;100264.16;;;21.88;56.06
61710;BME280;47633;51.494;5.386;2023-08-06T01:37:43;100264.16;;;21.88;56.13
61710;BME280;47633;51.494;5.386;2023-08-06T01:40:12;100259.88;;;21.87;55.97
61710;BME280;47633;51.494;5.386;2023-08-06T01:42:38;100266.81;;;21.88;55.76
61710;BME280;47633;51.494;5.386;2023-08-06T01:45:05;100263.34;;;21.88;55.85
61710;BME280;47633;51.494;5.386;2023-08-06T01:47:30;100257.22;;;21.87;55.83
61710;BME280;47633;51.494;5.386;2023-08-06T01:49:55;100253.06;;;21.85;56.34
61710;BME280;47633;51.494;5.386;2023-08-06T01:52:21;100258.19;;;21.86;56.03
61710;BME280;47633;51.494;5.386;2023-08-06T01:54:46;100256.38;;;21.87;55.97
61710;BME280;47633;51.494;5.386;2023-08-06T01:57:11;100254.56;;;21.87;55.84
61710;BME280;47633;51.494;5.386;2023-08-06T01:59:38;100255.56;;;21.86;55.84
61710;BME280;47633;51.494;5.386;2023-08-06T02:02:04;100254.72;;;21.86;55.81
61710;BME280;47633;51.494;5.386;2023-08-06T02:04:29;100251.22;;;21.85;55.78
61710;BME280;47633;51.494;5.386;2023-08-06T02:06:54;100254.72;;;21.86;55.57
61710;BME280;47633;51.494;5.386;2023-08-06T02:09:20;100257.38;;;21.86;55.68
61710;BME280;47633;51.494;5.386;2023-08-06T02:11:45;100262.69;;;21.86;55.86
61710;BME280;47633;51.494;5.386;2023-08-06T02:14:10;100258.38;;;21.85;55.87
61710;BME280;47633;51.494;5.386;2023-08-06T02:16:36;100268.97;;;21.85;55.62
61710;BME280;47633;51.494;5.386;2023-08-06T02:19:02;100263.66;;;21.85;55.87
61710;BME280;47633;51.494;5.386;2023-08-06T02:21:29;100260.34;;;21.83;55.68
61710;BME280;47633;51.494;5.386;2023-08-06T02:23:54;100263.66;;;21.85;55.86
61710;BME280;47633;51.494;5.386;2023-08-06T02:26:19;100262.84;;;21.84;55.96
61710;BME280;47633;51.494;5.386;2023-08-06T02:28:45;100262.69;;;21.86;55.90
61710;BME280;47633;51.494;5.386;2023-08-06T02:31:10;100266.31;;;21.85;55.79
61710;BME280;47633;51.494;5.386;2023-08-06T02:33:35;100251.56;;;21.82;55.70
61710;BME280;47633;51.494;5.386;2023-08-06T02:36:04;100257.03;;;21.81;55.72
61710;BME280;47633;51.494;5.386;2023-08-06T02:38:33;100257.72;;;21.83;55.82
61710;BME280;47633;51.494;5.386;2023-08-06T02:40:58;100263.84;;;21.83;55.48
61710;BME280;47633;51.494;5.386;2023-08-06T02:43:24;100255.06;;;21.83;55.74
61710;BME280;47633;51.494;5.386;2023-08-06T02:45:49;100254.19;;;21.82;55.80
61710;BME280;47633;51.494;5.386;2023-08-06T02:48:14;100258.69;;;21.82;55.69
61710;BME280;47633;51.494;5.386;2023-08-06T02:50:40;100257.72;;;21.83;55.42
61710;BME280;47633;51.494;5.386;2023-08-06T02:53:07;100255.22;;;21.81;55.67
61710;BME280;47633;51.494;5.386;2023-08-06T02:55:33;100253.38;;;21.82;56.03
61710;BME280;47633;51.494;5.386;2023-08-06T02:57:59;100248.91;;;21.82;55.83
61710;BME280;47633;51.494;5.386;2023-08-06T03:00:25;100250.91;;;21.80;55.54
61710;BME280;47633;51.494;5.386;2023-08-06T03:02:51;100247.41;;;21.80;55.71
61710;BME280;47633;51.494;5.386;2023-08-06T03:05:16;100246.41;;;21.81;55.67
61710;BME280;47633;51.494;5.386;2023-08-06T03:07:41;100252.56;;;21.81;55.62
61710;BME280;47633;51.494;5.386;2023-08-06T03:10:07;100248.25;;;21.80;55.65
61710;BME280;47633;51.494;5.386;2023-08-06T03:12:32;100245.59;;;21.80;55.76
61710;BME280;47633;51.494;5.386;2023-08-06T03:14:58;100246.41;;;21.81;55.70
61710;BME280;47633;51.494;5.386;2023-08-06T03:17:23;100250.06;;;21.80;55.91
61710;BME280;47633;51.494;5.386;2023-08-06T03:19:48;100250.06;;;21.80;55.85
61710;BME280;47633;51.494;5.386;2023-08-06T03:22:13;100250.06;;;21.80;56.09
61710;BME280;47633;51.494;5.386;2023-08-06T03:24:39;100247.41;;;21.80;55.91
61710;BME280;47633;51.494;5.386;2023-08-06T03:27:05;100250.06;;;21.80;55.59
61710;BME280;47633;51.494;5.386;2023-08-06T03:29:30;100251.06;;;21.79;55.72
61710;BME280;47633;51.494;5.386;2023-08-06T03:31:55;100257.19;;;21.79;55.62
61710;BME280;47633;51.494;5.386;2023-08-06T03:34:21;100258.03;;;21.80;55.70
61710;BME280;47633;51.494;5.386;2023-08-06T03:36:46;100253.72;;;21.79;55.99
61710;BME280;47633;51.494;5.386;2023-08-06T03:39:11;100252.72;;;21.80;55.56
61710;BME280;47633;51.494;5.386;2023-08-06T03:41:37;100253.88;;;21.77;55.61
61710;BME280;47633;51.494;5.386;2023-08-06T03:44:02;100256.38;;;21.79;55.89
61710;BME280;47633;51.494;5.386;2023-08-06T03:46:29;100258.19;;;21.78;55.65
61710;BME280;47633;51.494;5.386;2023-08-06T03:48:54;100261.66;;;21.79;55.90
61710;BME280;47633;51.494;5.386;2023-08-06T03:51:20;100259.19;;;21.77;55.98
61710;BME280;47633;51.494;5.386;2023-08-06T03:53:45;100260.00;;;21.78;56.01
61710;BME280;47633;51.494;5.386;2023-08-06T03:56:10;100262.66;;;21.78;56.00
61710;BME280;47633;51.494;5.386;2023-08-06T03:58:36;100256.53;;;21.77;55.74
61710;BME280;47633;51.494;5.386;2023-08-06T04:01:02;100262.66;;;21.78;55.77
61710;BME280;47633;51.494;5.386;2023-08-06T04:03:28;100265.47;;;21.76;55.98
61710;BME280;47633;51.494;5.386;2023-08-06T04:05:54;100267.13;;;21.77;56.25
61710;BME280;47633;51.494;5.386;2023-08-06T04:08:19;100263.66;;;21.77;55.75
61710;BME280;47633;51.494;5.386;2023-08-06T04:10:45;100274.25;;;21.77;55.58
61710;BME280;47633;51.494;5.386;2023-08-06T04:13:10;100274.44;;;21.75;55.82
61710;BME280;47633;51.494;5.386;2023-08-06T04:15:35;100264.63;;;21.76;55.80
61710;BME280;47633;51.494;5.386;2023-08-06T04:18:00;100270.75;;;21.76;55.60
61710;BME280;47633;51.494;5.386;2023-08-06T04:20:26;100268.28;;;21.74;55.73
61710;BME280;47633;51.494;5.386;2023-08-06T04:22:54;100275.41;;;21.74;55.58
61710;BME280;47633;51.494;5.386;2023-08-06T04:25:19;100275.25;;;21.76;55.86
61710;BME280;47633;51.494;5.386;2023-08-06T04:27:47;100274.44;;;21.75;55.75
61710;BME280;47633;51.494;5.386;2023-08-06T04:30:12;100282.38;;;21.75;55.54
61710;BME280;47633;51.494;5.386;2023-08-06T04:32:39;100278.88;;;21.74;55.63
61710;BME280;47633;51.494;5.386;2023-08-06T04:35:04;100282.38;;;21.75;55.61
61710;BME280;47633;51.494;5.386;2023-08-06T04:37:30;100282.38;;;21.75;55.83
61710;BME280;47633;51.494;5.386;2023-08-06T04:39:55;100285.19;;;21.73;56.07
61710;BME280;47633;51.494;5.386;2023-08-06T04:42:20;100288.66;;;21.74;55.77
61710;BME280;47633;51.494;5.386;2023-08-06T04:44:46;100285.19;;;21.73;55.70
61710;BME280;47633;51.494;5.386;2023-08-06T04:47:11;100289.50;;;21.74;55.74
61710;BME280;47633;51.494;5.386;2023-08-06T04:49:36;100294.78;;;21.74;56.10
61710;BME280;47633;51.494;5.386;2023-08-06T04:52:02;100287.69;;;21.75;55.96
61710;BME280;47633;51.494;5.386;2023-08-06T04:54:27;100296.78;;;21.72;55.77
61710;BME280;47633;51.494;5.386;2023-08-06T04:56:53;100300.94;;;21.75;55.73
61710;BME280;47633;51.494;5.386;2023-08-06T04:59:18;100293.97;;;21.74;55.66
61710;BME280;47633;51.494;5.386;2023-08-06T05:01:43;100298.47;;;21.73;55.62
61710;BME280;47633;51.494;5.386;2023-08-06T05:04:09;100301.94;;;21.74;55.93
61710;BME280;47633;51.494;5.386;2023-08-06T05:06:34;100303.75;;;21.73;55.88
61710;BME280;47633;51.494;5.386;2023-08-06T05:08:59;100299.44;;;21.72;55.63
61710;BME280;47633;51.494;5.386;2023-08-06T05:11:25;100310.03;;;21.72;55.69
61710;BME280;47633;51.494;5.386;2023-08-06T05:13:50;100304.75;;;21.72;56.09
61710;BME280;47633;51.494;5.386;2023-08-06T05:16:15;100310.03;;;21.72;55.93
61710;BME280;47633;51.494;5.386;2023-08-06T05:18:41;100320.66;;;21.72;55.97
61710;BME280;47633;51.494;5.386;2023-08-06T05:21:07;100318.00;;;21.72;55.95
61710;BME280;47633;51.494;5.386;2023-08-06T05:23:32;100319.00;;;21.71;55.70
61710;BME280;47633;51.494;5.386;2023-08-06T05:25:57;100328.59;;;21.72;55.84
61710;BME280;47633;51.494;5.386;2023-08-06T05:28:23;100319.00;;;21.71;56.02
61710;BME280;47633;51.494;5.386;2023-08-06T05:30:48;100326.81;;;21.73;55.92
61710;BME280;47633;51.494;5.386;2023-08-06T05:33:14;100326.97;;;21.71;56.15
61710;BME280;47633;51.494;5.386;2023-08-06T05:35:41;100333.09;;;21.72;56.04
61710;BME280;47633;51.494;5.386;2023-08-06T05:38:07;100325.13;;;21.72;56.00
61710;BME280;47633;51.494;5.386;2023-08-06T05:40:34;100341.06;;;21.72;55.90
61710;BME280;47633;51.494;5.386;2023-08-06T05:42:59;100348.19;;;21.71;55.92
61710;BME280;47633;51.494;5.386;2023-08-06T05:45:24;100346.34;;;21.72;55.95
61710;BME280;47633;51.494;5.386;2023-08-06T05:47:49;100358.78;;;21.71;56.14
61710;BME280;47633;51.494;5.386;2023-08-06T05:50:15;100357.94;;;21.71;55.75
61710;BME280;47633;51.494;5.386;2023-08-06T05:52:40;100363.09;;;21.72;56.20
61710;BME280;47633;51.494;5.386;2023-08-06T05:55:06;100368.56;;;21.71;55.69
61710;BME280;47633;51.494;5.386;2023-08-06T05:57:31;100363.25;;;21.71;56.33
61710;BME280;47633;51.494;5.386;2023-08-06T05:59:57;100361.44;;;21.71;55.90
61710;BME280;47633;51.494;5.386;2023-08-06T06:02:22;100371.19;;;21.71;55.97
61710;BME280;47633;51.494;5.386;2023-08-06T06:04:47;100370.22;;;21.72;56.23
61710;BME280;47633;51.494;5.386;2023-08-06T06:07:13;100375.53;;;21.72;56.10
61710;BME280;47633;51.494;5.386;2023-08-06T06:09:39;100380.00;;;21.71;56.09
61710;BME280;47633;51.494;5.386;2023-08-06T06:12:05;100380.16;;;21.70;56.17
61710;BME280;47633;51.494;5.386;2023-08-06T06:14:30;100389.75;;;21.71;56.33
61710;BME280;47633;51.494;5.386;2023-08-06T06:16:56;100385.47;;;21.70;55.90
61710;BME280;47633;51.494;5.386;2023-08-06T06:19:21;100396.91;;;21.70;56.22
61710;BME280;47633;51.494;5.386;2023-08-06T06:21:47;100390.78;;;21.70;55.93
61710;BME280;47633;51.494;5.386;2023-08-06T06:24:12;100406.69;;;21.70;56.25
61710;BME280;47633;51.494;5.386;2023-08-06T06:26:38;100409.34;;;21.70;56.20
61710;BME280;47633;51.494;5.386;2023-08-06T06:29:03;100409.34;;;21.70;56.29
61710;BME280;47633;51.494;5.386;2023-08-06T06:31:28;100415.63;;;21.69;56.14
61710;BME280;47633;51.494;5.386;2023-08-06T06:33:54;100415.47;;;21.70;56.23
61710;BME280;47633;51.494;5.386;2023-08-06T06:36:20;100427.06;;;21.69;56.25
61710;BME280;47633;51.494;5.386;2023-08-06T06:38:45;100422.59;;;21.70;56.34
61710;BME280;47633;51.494;5.386;2023-08-06T06:41:11;100423.56;;;21.69;56.07
61710;BME280;47633;51.494;5.386;2023-08-06T06:43:36;100433.22;;;21.70;56.34
61710;BME280;47633;51.494;5.386;2023-08-06T06:46:03;100440.31;;;21.69;56.10
61710;BME280;47633;51.494;5.386;2023-08-06T06:48:32;100450.91;;;21.69;56.22
61710;BME280;47633;51.494;5.386;2023-08-06T06:50:58;100449.13;;;21.70;55.74
61710;BME280;47633;51.494;5.386;2023-08-06T06:53:23;100461.69;;;21.68;56.01
61710;BME280;47633;51.494;5.386;2023-08-06T06:55:56;100454.41;;;21.70;56.04
61710;BME280;47633;51.494;5.386;2023-08-06T06:58:26;100464.88;;;21.71;55.96
61710;BME280;47633;51.494;5.386;2023-08-06T07:00:51;100462.38;;;21.70;55.91
61710;BME280;47633;51.494;5.386;2023-08-06T07:03:16;100467.53;;;21.71;55.78
61710;BME280;47633;51.494;5.386;2023-08-06T07:05:43;100466.00;;;21.69;55.84
61710;BME280;47633;51.494;5.386;2023-08-06T07:08:09;100471.97;;;21.71;55.96
61710;BME280;47633;51.494;5.386;2023-08-06T07:10:35;100474.78;;;21.69;55.96
61710;BME280;47633;51.494;5.386;2023-08-06T07:13:00;100479.28;;;21.69;56.07
61710;BME280;47633;51.494;5.386;2023-08-06T07:15:25;100480.25;;;21.68;56.60
61710;BME280;47633;51.494;5.386;2023-08-06T07:17:51;100481.41;;;21.65;56.53
61710;BME280;47633;51.494;5.386;2023-08-06T07:20:16;100493.66;;;21.66;56.52
61710;BME280;47633;51.494;5.386;2023-08-06T07:22:41;100498.00;;;21.67;56.65
61710;BME280;47633;51.494;5.386;2023-08-06T07:25:07;100501.31;;;21.69;56.53
61710;BME280;47633;51.494;5.386;2023-08-06T07:27:33;100508.44;;;21.69;56.58
61710;BME280;47633;51.494;5.386;2023-08-06T07:29:58;100508.44;;;21.69;56.72
61710;BME280;47633;51.494;5.386;2023-08-06T07:32:24;100514.56;;;21.69;56.58
61710;BME280;47633;51.494;5.386;2023-08-06T07:34:49;100526.19;;;21.68;56.38
61710;BME280;47633;51.494;5.386;2023-08-06T07:37:15;100522.84;;;21.66;56.28
61710;BME280;47633;51.494;5.386;2023-08-06T07:39:40;100525.31;;;21.68;56.52
61710;BME280;47633;51.494;5.386;2023-08-06T07:42:07;100535.94;;;21.68;56.70
61710;BME280;47633;51.494;5.386;2023-08-06T07:44:33;100526.34;;;21.67;56.40
61710;BME280;47633;51.494;5.386;2023-08-06T07:46:58;100533.28;;;21.68;56.84
61710;BME280;47633;51.494;5.386;2023-08-06T07:49:23;100538.91;;;21.65;56.71
61710;BME280;47633;51.494;5.386;2023-08-06T07:51:49;100524.66;;;21.66;57.15
61710;BME280;47633;51.494;5.386;2023-08-06T07:54:17;100538.75;;;21.66;57.04
61710;BME280;47633;51.494;5.386;2023-08-06T07:56:42;100537.09;;;21.65;57.01
61710;BME280;47633;51.494;5.386;2023-08-06T07:59:07;100533.28;;;21.68;57.11
61710;BME280;47633;51.494;5.386;2023-08-06T08:01:33;100529.66;;;21.69;56.97
61710;BME280;47633;51.494;5.386;2023-08-06T08:03:58;100539.59;;;21.67;56.82
61710;BME280;47633;51.494;5.386;2023-08-06T08:06:24;100541.25;;;21.68;57.07
61710;BME280;47633;51.494;5.386;2023-08-06T08:08:49;100535.13;;;21.67;56.85
61710;BME280;47633;51.494;5.386;2023-08-06T08:11:15;100540.25;;;21.69;56.80
61710;BME280;47633;51.494;5.386;2023-08-06T08:13:41;100541.09;;;21.69;57.13
61710;BME280;47633;51.494;5.386;2023-08-06T08:16:06;100538.59;;;21.68;57.35
61710;BME280;47633;51.494;5.386;2023-08-06T08:18:32;100536.72;;;21.60;57.46
61710;BME280;47633;51.494;5.386;2023-08-06T08:20:57;100543.31;;;21.56;57.83
61710;BME280;47633;51.494;5.386;2023-08-06T08:23:22;100552.25;;;21.55;57.99
61710;BME280;47633;51.494;5.386;2023-08-06T08:25:48;100550.47;;;21.55;57.75
61710;BME280;47633;51.494;5.386;2023-08-06T08:28:13;100550.63;;;21.54;57.62
61710;BME280;47633;51.494;5.386;2023-08-06T08:30:40;100549.75;;;21.53;57.92
61710;BME280;47633;51.494;5.386;2023-08-06T08:33:06;100554.25;;;21.53;57.77
61710;BME280;47633;51.494;5.386;2023-08-06T08:35:34;100561.22;;;21.54;57.79
61710;BME280;47633;51.494;5.386;2023-08-06T08:37:59;100556.22;;;21.51;58.25
61710;BME280;47633;51.494;5.386;2023-08-06T08:40:31;100569.47;;;21.51;58.15
61710;BME280;47633;51.494;5.386;2023-08-06T08:42:58;100571.28;;;21.50;58.10
61710;BME280;47633;51.494;5.386;2023-08-06T08:45:28;100573.94;;;21.50;58.12
61710;BME280;47633;51.494;5.386;2023-08-06T08:47:54;100571.13;;;21.52;58.00
61710;BME280;47633;51.494;5.386;2023-08-06T08:50:21;100579.22;;;21.50;57.88
61710;BME280;47633;51.494;5.386;2023-08-06T08:52:46;100577.59;;;21.49;57.89
61710;BME280;47633;51.494;5.386;2023-08-06T08:55:14;100575.75;;;21.50;57.82
61710;BME280;47633;51.494;5.386;2023-08-06T08:57:40;100579.38;;;21.49;57.83
61710;BME280;47633;51.494;5.386;2023-08-06T09:00:06;100593.34;;;21.51;58.14
61710;BME280;47633;51.494;5.386;2023-08-06T09:02:33;100585.53;;;21.49;57.84
61710;BME280;47633;51.494;5.386;2023-08-06T09:05:00;100582.88;;;21.49;57.62
61710;BME280;47633;51.494;5.386;2023-08-06T09:07:29;100598.91;;;21.48;57.76
61710;BME280;47633;51.494;5.386;2023-08-06T09:09:56;100606.88;;;21.48;57.91
61710;BME280;47633;51.494;5.386;2023-08-06T09:12:22;100616.50;;;21.49;57.90
61710;BME280;47633;51.494;5.386;2023-08-06T09:14:47;100615.66;;;21.48;57.96
61710;BME280;47633;51.494;5.386;2023-08-06T09:17:13;100625.31;;;21.49;57.83
61710;BME280;47633;51.494;5.386;2023-08-06T09:19:42;100622.94;;;21.46;57.70
61710;BME280;47633;51.494;5.386;2023-08-06T09:22:12;100625.44;;;21.48;57.79
61710;BME280;47633;51.494;5.386;2023-08-06T09:24:39;100633.38;;;21.48;58.03
61710;BME280;47633;51.494;5.386;2023-08-06T09:27:10;100634.50;;;21.45;57.83
61710;BME280;47633;51.494;5.386;2023-08-06T09:29:40;100643.28;;;21.46;58.10
61710;BME280;47633;51.494;5.386;2023-08-06T09:32:05;100646.78;;;21.46;58.02
61710;BME280;47633;51.494;5.386;2023-08-06T09:34:31;100651.81;;;21.49;57.68
61710;BME280;47633;51.494;5.386;2023-08-06T09:36:56;100650.66;;;21.52;57.91
61710;BME280;47633;51.494;5.386;2023-08-06T09:39:27;100655.81;;;21.53;57.62
61710;BME280;47633;51.494;5.386;2023-08-06T09:41:56;100663.78;;;21.53;57.92
61710;BME280;47633;51.494;5.386;2023-08-06T09:44:21;100660.28;;;21.53;57.52
61710;BME280;47633;51.494;5.386;2023-08-06T09:46:56;100665.28;;;21.56;57.48
61710;BME280;47633;51.494;5.386;2023-08-06T09:51:58;100666.63;;;21.60;57.60
61710;BME280;47633;51.494;5.386;2023-08-06T09:54:26;100663.16;;;21.60;57.58
61710;BME280;47633;51.494;5.386;2023-08-06T09:56:53;100672.09;;;21.59;57.98
61710;BME280;47633;51.494;5.386;2023-08-06T09:59:19;100676.56;;;21.58;57.74
61710;BME280;47633;51.494;5.386;2023-08-06T10:01:45;100677.59;;;21.57;58.01
61710;BME280;47633;51.494;5.386;2023-08-06T10:04:13;100679.53;;;21.55;58.16
61710;BME280;47633;51.494;5.386;2023-08-06T10:06:42;100677.59;;;21.57;57.91
61710;BME280;47633;51.494;5.386;2023-08-06T10:09:10;100680.38;;;21.55;57.80
61710;BME280;47633;51.494;5.386;2023-08-06T10:11:36;100683.84;;;21.56;57.97
61710;BME280;47633;51.494;5.386;2023-08-06T10:14:32;100679.22;;;21.58;57.71
61710;BME280;47633;51.494;5.386;2023-08-06T10:16:59;100680.03;;;21.59;57.42
61710;BME280;47633;51.494;5.386;2023-08-06T10:19:25;100693.00;;;21.62;57.67
61710;BME280;47633;51.494;5.386;2023-08-06T10:22:14;100687.19;;;21.58;58.02
61710;BME280;47633;51.494;5.386;2023-08-06T10:24:48;100689.16;;;21.56;57.96
61710;BME280;47633;51.494;5.386;2023-08-06T10:27:13;100692.63;;;21.56;57.94
61710;BME280;47633;51.494;5.386;2023-08-06T10:29:39;100690.13;;;21.55;58.14
61710;BME280;47633;51.494;5.386;2023-08-06T10:32:05;100697.25;;;21.54;57.99
61710;BME280;47633;51.494;5.386;2023-08-06T10:34:58;100692.94;;;21.53;58.01
61710;BME280;47633;51.494;5.386;2023-08-06T10:37:36;100690.44;;;21.52;57.91
61710;BME280;47633;51.494;5.386;2023-08-06T10:40:02;100691.97;;;21.54;58.14
61710;BME280;47633;51.494;5.386;2023-08-06T10:42:28;100691.50;;;21.59;57.80
61710;BME280;47633;51.494;5.386;2023-08-06T10:45:17;100697.25;;;21.72;57.12
61710;BME280;47633;51.494;5.386;2023-08-06T10:47:43;100700.84;;;21.81;56.84
61710;BME280;47633;51.494;5.386;2023-08-06T10:50:18;100701.81;;;21.80;56.99
61710;BME280;47633;51.494;5.386;2023-08-06T10:52:44;100705.44;;;21.79;57.52
61710;BME280;47633;51.494;5.386;2023-08-06T10:55:09;100708.94;;;21.80;57.38
61710;BME280;47633;51.494;5.386;2023-08-06T10:57:35;100705.53;;;21.87;56.93
61710;BME280;47633;51.494;5.386;2023-08-06T11:00:01;100712.03;;;21.93;57.04
61710;BME280;47633;51.494;5.386;2023-08-06T11:02:26;100710.19;;;21.93;57.20
61710;BME280;47633;51.494;5.386;2023-08-06T11:04:51;100708.91;;;21.98;56.98
61710;BME280;47633;51.494;5.386;2023-08-06T11:07:17;100718.72;;;21.97;56.91
61710;BME280;47633;51.494;5.386;2023-08-06T11:09:42;100710.75;;;21.97;57.11
61710;BME280;47633;51.494;5.386;2023-08-06T11:12:11;100712.69;;;21.95;56.94
61710;BME280;47633;51.494;5.386;2023-08-06T11:14:36;100717.03;;;21.96;57.07
61710;BME280;47633;51.494;5.386;2023-08-06T11:19:29;100717.69;;;21.98;57.10
61710;BME280;47633;51.494;5.386;2023-08-06T11:21:54;100718.56;;;21.99;57.05
61710;BME280;47633;51.494;5.386;2023-08-06T11:24:20;100714.06;;;21.99;57.18
61710;BME280;47633;51.494;5.386;2023-08-06T11:26:45;100718.56;;;21.99;57.26
61710;BME280;47633;51.494;5.386;2023-08-06T11:29:10;100721.06;;;22.00;57.09
61710;BME280;47633;51.494;5.386;2023-08-06T11:31:36;100714.16;;;21.89;57.57
61710;BME280;47633;51.494;5.386;2023-08-06T11:34:02;100715.06;;;21.80;57.81
61710;BME280;47633;51.494;5.386;2023-08-06T11:36:32;100708.88;;;21.71;57.88
61710;BME280;47633;51.494;5.386;2023-08-06T11:39:01;100716.69;;;21.73;57.97
61710;BME280;47633;51.494;5.386;2023-08-06T11:41:28;100721.28;;;21.71;58.34
61710;BME280;47633;51.494;5.386;2023-08-06T11:43:54;100723.25;;;21.69;58.42
61710;BME280;47633;51.494;5.386;2023-08-06T11:46:19;100720.09;;;21.65;58.49
61710;BME280;47633;51.494;5.386;2023-08-06T11:48:58;100715.06;;;21.62;58.45
61710;BME280;47633;51.494;5.386;2023-08-06T11:51:25;100720.38;;;21.62;58.37
61710;BME280;47633;51.494;5.386;2023-08-06T11:53:56;100727.63;;;21.60;58.57
61710;BME280;47633;51.494;5.386;2023-08-06T11:56:22;100724.00;;;21.61;58.33
61710;BME280;47633;51.494;5.386;2023-08-06T11:58:48;100725.97;;;21.59;58.43
61710;BME280;47633;51.494;5.386;2023-08-06T12:01:14;100719.00;;;21.58;58.52
61710;BME280;47633;51.494;5.386;2023-08-06T12:03:40;100726.13;;;21.58;58.60
61710;BME280;47633;51.494;5.386;2023-08-06T12:06:05;100727.97;;;21.57;59.08
61710;BME280;47633;51.494;5.386;2023-08-06T12:08:33;100726.28;;;21.56;58.92
61710;BME280;47633;51.494;5.386;2023-08-06T12:10:59;100728.09;;;21.55;58.50
61710;BME280;47633;51.494;5.386;2023-08-06T12:13:24;100727.78;;;21.59;58.83
61710;BME280;47633;51.494;5.386;2023-08-06T12:15:49;100734.09;;;21.58;59.02
61710;BME280;47633;51.494;5.386;2023-08-06T12:18:18;100734.91;;;21.58;59.20
61710;BME280;47633;51.494;5.386;2023-08-06T12:20:44;100730.63;;;21.57;59.08
61710;BME280;47633;51.494;5.386;2023-08-06T12:23:09;100736.75;;;21.58;59.33
61710;BME280;47633;51.494;5.386;2023-08-06T12:25:35;100744.69;;;21.58;59.20
61710;BME280;47633;51.494;5.386;2023-08-06T12:28:00;100740.88;;;21.60;59.14
61710;BME280;47633;51.494;5.386;2023-08-06T12:30:25;100745.06;;;21.63;59.27
61710;BME280;47633;51.494;5.386;2023-08-06T12:32:51;100745.44;;;21.68;59.04
61710;BME280;47633;51.494;5.386;2023-08-06T12:35:17;100749.63;;;21.70;59.20
61710;BME280;47633;51.494;5.386;2023-08-06T12:37:42;100746.31;;;21.68;58.74
61710;BME280;47633;51.494;5.386;2023-08-06T12:40:09;100748.09;;;21.68;59.09
61710;BME280;47633;51.494;5.386;2023-08-06T12:42:35;100752.44;;;21.69;59.17
61710;BME280;47633;51.494;5.386;2023-08-06T12:45:00;100755.38;;;21.66;58.77
61710;BME280;47633;51.494;5.386;2023-08-06T12:47:25;100751.91;;;21.65;58.87
61710;BME280;47633;51.494;5.386;2023-08-06T12:49:51;100758.84;;;21.66;59.08
61710;BME280;47633;51.494;5.386;2023-08-06T12:52:16;100755.22;;;21.67;58.85
61710;BME280;47633;51.494;5.386;2023-08-06T12:54:42;100756.91;;;21.68;58.63
61710;BME280;47633;51.494;5.386;2023-08-06T12:57:08;100765.38;;;21.72;58.83